sensor_id;sensor_type;location;lat;lon;timestamp;temperature;humidity
25963;DHT22;13760;52.588;13.406;2022-08-19T00:01:22;21.00;99.90
25963;DHT22;13760;52.588;13.406;2022-08-19T00:03:48;21.00;99.90
25963;DHT22;13760;52.588;13.406;2022-08-19T00:06:14;21.00;99.90
25963;DHT22;13760;52.588;13.406;2022-08-19T00:08:40;21.00;99.90
25963;DHT22;13760;52.588;13.406;2022-08-19T00:11:06;21.00;99.90
25963;DHT22;13760;52.588;13.406;2022-08-19T00:13:33;21.00;99.90
25963;DHT22;13760;52.588;13.406;2022-08-19T00:15:59;21.00;99.90
25963;DHT22;13760;52.588;13.406;2022-08-19T00:18:26;21.00;99.90
25963;DHT22;13760;52.588;13.406;2022-08-19T00:20:52;21.00;99.90
25963;DHT22;13760;52.588;13.406;2022-08-19T00:23:18;21.00;99.90
25963;DHT22;13760;52.588;13.406;2022-08-19T00:25:44;21.00;99.90
25963;DHT22;13760;52.588;13.406;2022-08-19T00:28:09;21.00;99.90
25963;DHT22;13760;52.588;13.406;2022-08-19T00:30:35;21.00;99.90
25963;DHT22;13760;52.588;13.406;2022-08-19T00:33:02;21.00;99.90
25963;DHT22;13760;52.588;13.406;2022-08-19T00:35:28;21.00;99.90
25963;DHT22;13760;52.588;13.406;2022-08-19T00:40:57;21.00;99.90
25963;DHT22;13760;52.588;13.406;2022-08-19T00:43:27;21.00;99.90
25963;DHT22;13760;52.588;13.406;2022-08-19T00:45:54;21.00;99.90
25963;DHT22;13760;52.588;13.406;2022-08-19T00:48:20;21.00;99.90
25963;DHT22;13760;52.588;13.406;2022-08-19T00:50:48;21.00;99.90
25963;DHT22;13760;52.588;13.406;2022-08-19T00:53:17;21.00;99.90
25963;DHT22;13760;52.588;13.406;2022-08-19T00:55:49;21.00;99.90
25963;DHT22;13760;52.588;13.406;2022-08-19T00:58:18;21.00;99.90
25963;DHT22;13760;52.588;13.406;2022-08-19T01:00:46;21.00;99.90
25963;DHT22;13760;52.588;13.406;2022-08-19T01:03:14;21.00;99.90
25963;DHT22;13760;52.588;13.406;2022-08-19T01:05:42;21.00;99.90
25963;DHT22;13760;52.588;13.406;2022-08-19T01:08:09;21.00;99.90
25963;DHT22;13760;52.588;13.406;2022-08-19T01:10:50;20.90;99.90
25963;DHT22;13760;52.588;13.406;2022-08-19T01:13:20;21.00;99.90
25963;DHT22;13760;52.588;13.406;2022-08-19T01:15:50;21.00;99.90
25963;DHT22;13760;52.588;13.406;2022-08-19T01:18:19;21.00;99.90
25963;DHT22;13760;52.588;13.406;2022-08-19T01:20:46;21.00;99.90
25963;DHT22;13760;52.588;13.406;2022-08-19T01:23:12;21.00;99.90
25963;DHT22;13760;52.588;13.406;2022-08-19T01:25:46;20.90;99.90
25963;DHT22;13760;52.588;13.406;2022-08-19T01:28:20;20.90;99.90
25963;DHT22;13760;52.588;13.406;2022-08-19T01:30:47;20.90;99.90
25963;DHT22;13760;52.588;13.406;2022-08-19T01:33:14;20.90;99.90
25963;DHT22;13760;52.588;13.406;2022-08-19T01:35:41;20.90;99.90
25963;DHT22;13760;52.588;13.406;2022-08-19T01:38:09;20.90;99.90
25963;DHT22;13760;52.588;13.406;2022-08-19T01:40:39;20.80;99.90
25963;DHT22;13760;52.588;13.406;2022-08-19T01:43:06;20.80;99.90
25963;DHT22;13760;52.588;13.406;2022-08-19T01:45:40;20.80;99.90
25963;DHT22;13760;52.588;13.406;2022-08-19T01:48:06;20.80;99.90
25963;DHT22;13760;52.588;13.406;2022-08-19T01:50:33;20.80;99.90
25963;DHT22;13760;52.588;13.406;2022-08-19T01:53:21;20.70;99.90
25963;DHT22;13760;52.588;13.406;2022-08-19T01:55:46;20.70;99.90
25963;DHT22;13760;52.588;13.406;2022-08-19T01:58:21;20.70;99.90
25963;DHT22;13760;52.588;13.406;2022-08-19T02:00:48;20.70;99.90
25963;DHT22;13760;52.588;13.406;2022-08-19T02:03:14;20.60;99.90
25963;DHT22;13760;52.588;13.406;2022-08-19T02:05:40;20.60;99.90
25963;DHT22;13760;52.588;13.406;2022-08-19T02:08:06;20.60;99.90
25963;DHT22;13760;52.588;13.406;2022-08-19T02:10:32;20.60;99.90
25963;DHT22;13760;52.588;13.406;2022-08-19T02:12:58;20.60;99.90
25963;DHT22;13760;52.588;13.406;2022-08-19T02:15:24;20.60;99.90
25963;DHT22;13760;52.588;13.406;2022-08-19T02:17:51;20.50;99.90
25963;DHT22;13760;52.588;13.406;2022-08-19T02:20:20;20.50;99.90
25963;DHT22;13760;52.588;13.406;2022-08-19T02:22:45;20.50;99.90
25963;DHT22;13760;52.588;13.406;2022-08-19T02:25:13;20.40;99.90
25963;DHT22;13760;52.588;13.406;2022-08-19T02:27:41;20.40;99.90
25963;DHT22;13760;52.588;13.406;2022-08-19T02:30:11;20.40;99.90
25963;DHT22;13760;52.588;13.406;2022-08-19T02:32:37;20.30;99.90
25963;DHT22;13760;52.588;13.406;2022-08-19T02:35:03;20.30;99.90
25963;DHT22;13760;52.588;13.406;2022-08-19T02:37:29;20.30;99.90
25963;DHT22;13760;52.588;13.406;2022-08-19T02:40:13;20.20;99.90
25963;DHT22;13760;52.588;13.406;2022-08-19T02:42:47;20.20;99.90
25963;DHT22;13760;52.588;13.406;2022-08-19T02:45:14;20.10;99.90
25963;DHT22;13760;52.588;13.406;2022-08-19T02:47:40;20.00;99.90
25963;DHT22;13760;52.588;13.406;2022-08-19T02:50:06;20.00;99.90
25963;DHT22;13760;52.588;13.406;2022-08-19T02:52:33;20.00;99.90
25963;DHT22;13760;52.588;13.406;2022-08-19T02:54:59;19.90;99.90
25963;DHT22;13760;52.588;13.406;2022-08-19T02:57:25;19.90;99.90
25963;DHT22;13760;52.588;13.406;2022-08-19T02:59:51;19.90;99.90
25963;DHT22;13760;52.588;13.406;2022-08-19T03:02:17;19.90;99.90
25963;DHT22;13760;52.588;13.406;2022-08-19T03:04:43;19.80;99.90
25963;DHT22;13760;52.588;13.406;2022-08-19T03:07:09;19.80;99.90
25963;DHT22;13760;52.588;13.406;2022-08-19T03:09:37;19.80;99.90
25963;DHT22;13760;52.588;13.406;2022-08-19T03:12:04;19.80;99.90
25963;DHT22;13760;52.588;13.406;2022-08-19T03:14:31;19.80;99.90
25963;DHT22;13760;52.588;13.406;2022-08-19T03:16:57;19.70;99.90
25963;DHT22;13760;52.588;13.406;2022-08-19T03:19:23;19.80;99.90
25963;DHT22;13760;52.588;13.406;2022-08-19T03:21:50;19.70;99.90
25963;DHT22;13760;52.588;13.406;2022-08-19T03:24:39;19.70;99.90
25963;DHT22;13760;52.588;13.406;2022-08-19T03:27:15;19.70;99.90
25963;DHT22;13760;52.588;13.406;2022-08-19T03:29:54;19.70;99.90
25963;DHT22;13760;52.588;13.406;2022-08-19T03:32:28;19.70;99.90
25963;DHT22;13760;52.588;13.406;2022-08-19T03:34:56;19.70;99.90
25963;DHT22;13760;52.588;13.406;2022-08-19T03:37:22;19.70;99.90
25963;DHT22;13760;52.588;13.406;2022-08-19T03:39:48;19.60;99.90
25963;DHT22;13760;52.588;13.406;2022-08-19T03:42:13;19.70;99.90
25963;DHT22;13760;52.588;13.406;2022-08-19T03:44:47;19.70;99.90
25963;DHT22;13760;52.588;13.406;2022-08-19T03:47:12;19.60;99.90
25963;DHT22;13760;52.588;13.406;2022-08-19T03:49:41;19.60;99.90
25963;DHT22;13760;52.588;13.406;2022-08-19T03:52:07;19.60;99.90
25963;DHT22;13760;52.588;13.406;2022-08-19T03:54:33;19.60;99.90
25963;DHT22;13760;52.588;13.406;2022-08-19T03:56:59;19.60;99.90
25963;DHT22;13760;52.588;13.406;2022-08-19T03:59:29;19.60;99.90
25963;DHT22;13760;52.588;13.406;2022-08-19T04:01:59;19.60;99.90
25963;DHT22;13760;52.588;13.406;2022-08-19T04:04:25;19.70;99.90
25963;DHT22;13760;52.588;13.406;2022-08-19T04:06:54;19.70;99.90
25963;DHT22;13760;52.588;13.406;2022-08-19T04:09:20;19.70;99.90
25963;DHT22;13760;52.588;13.406;2022-08-19T04:11:49;19.70;99.90
25963;DHT22;13760;52.588;13.406;2022-08-19T04:14:18;19.70;99.90
25963;DHT22;13760;52.588;13.406;2022-08-19T04:16:45;19.70;99.90
25963;DHT22;13760;52.588;13.406;2022-08-19T04:19:15;19.70;99.90
25963;DHT22;13760;52.588;13.406;2022-08-19T04:21:45;19.80;99.90
25963;DHT22;13760;52.588;13.406;2022-08-19T04:24:12;19.80;99.90
25963;DHT22;13760;52.588;13.406;2022-08-19T04:26:38;19.80;99.90
25963;DHT22;13760;52.588;13.406;2022-08-19T04:29:08;19.80;99.90
25963;DHT22;13760;52.588;13.406;2022-08-19T04:31:34;19.80;99.90
25963;DHT22;13760;52.588;13.406;2022-08-19T04:34:06;19.80;99.90
25963;DHT22;13760;52.588;13.406;2022-08-19T04:36:35;19.80;99.90
25963;DHT22;13760;52.588;13.406;2022-08-19T04:39:14;19.70;99.90
25963;DHT22;13760;52.588;13.406;2022-08-19T04:41:40;19.80;99.90
25963;DHT22;13760;52.588;13.406;2022-08-19T04:44:24;19.80;99.90
25963;DHT22;13760;52.588;13.406;2022-08-19T04:46:55;19.70;99.90
25963;DHT22;13760;52.588;13.406;2022-08-19T04:49:22;19.80;99.90
25963;DHT22;13760;52.588;13.406;2022-08-19T04:51:58;19.80;99.90
25963;DHT22;13760;52.588;13.406;2022-08-19T04:54:29;19.80;99.90
25963;DHT22;13760;52.588;13.406;2022-08-19T04:56:55;19.80;99.90
25963;DHT22;13760;52.588;13.406;2022-08-19T04:59:24;19.80;99.90
25963;DHT22;13760;52.588;13.406;2022-08-19T05:01:50;19.90;99.90
25963;DHT22;13760;52.588;13.406;2022-08-19T05:04:18;19.90;99.90
25963;DHT22;13760;52.588;13.406;2022-08-19T05:06:45;19.90;99.90
25963;DHT22;13760;52.588;13.406;2022-08-19T05:09:10;19.90;99.90
25963;DHT22;13760;52.588;13.406;2022-08-19T05:11:37;19.90;99.90
25963;DHT22;13760;52.588;13.406;2022-08-19T05:14:06;19.90;99.90
25963;DHT22;13760;52.588;13.406;2022-08-19T05:16:32;19.90;99.90
25963;DHT22;13760;52.588;13.406;2022-08-19T05:18:58;20.00;99.90
25963;DHT22;13760;52.588;13.406;2022-08-19T05:21:43;19.90;99.90
25963;DHT22;13760;52.588;13.406;2022-08-19T05:24:39;19.90;99.90
25963;DHT22;13760;52.588;13.406;2022-08-19T05:27:35;20.00;99.90
25963;DHT22;13760;52.588;13.406;2022-08-19T05:30:01;20.00;99.90
25963;DHT22;13760;52.588;13.406;2022-08-19T05:32:27;20.10;99.90
25963;DHT22;13760;52.588;13.406;2022-08-19T05:34:53;20.10;99.90
25963;DHT22;13760;52.588;13.406;2022-08-19T05:41:00;20.20;99.90
25963;DHT22;13760;52.588;13.406;2022-08-19T05:43:34;20.30;99.90
25963;DHT22;13760;52.588;13.406;2022-08-19T05:52:46;20.50;99.90
25963;DHT22;13760;52.588;13.406;2022-08-19T05:55:34;20.50;99.90
25963;DHT22;13760;52.588;13.406;2022-08-19T05:58:23;20.60;99.90
25963;DHT22;13760;52.588;13.406;2022-08-19T06:00:52;20.60;99.90
25963;DHT22;13760;52.588;13.406;2022-08-19T06:03:33;20.60;99.90
25963;DHT22;13760;52.588;13.406;2022-08-19T06:06:03;20.60;99.90
25963;DHT22;13760;52.588;13.406;2022-08-19T06:08:36;20.70;99.90
25963;DHT22;13760;52.588;13.406;2022-08-19T06:14:48;20.80;99.90
25963;DHT22;13760;52.588;13.406;2022-08-19T06:17:34;21.00;99.90
25963;DHT22;13760;52.588;13.406;2022-08-19T06:20:04;21.00;99.90
25963;DHT22;13760;52.588;13.406;2022-08-19T06:22:30;21.00;99.90
25963;DHT22;13760;52.588;13.406;2022-08-19T06:24:56;21.00;99.90
25963;DHT22;13760;52.588;13.406;2022-08-19T06:27:22;21.00;99.90
25963;DHT22;13760;52.588;13.406;2022-08-19T06:29:51;21.00;99.90
25963;DHT22;13760;52.588;13.406;2022-08-19T06:32:33;21.00;99.90
25963;DHT22;13760;52.588;13.406;2022-08-19T06:35:02;21.00;99.90
25963;DHT22;13760;52.588;13.406;2022-08-19T06:37:42;21.10;99.90
25963;DHT22;13760;52.588;13.406;2022-08-19T06:44:09;21.10;99.90
25963;DHT22;13760;52.588;13.406;2022-08-19T06:49:52;21.20;99.90
25963;DHT22;13760;52.588;13.406;2022-08-19T06:53:36;21.20;99.90
25963;DHT22;13760;52.588;13.406;2022-08-19T07:10:51;21.50;99.90
25963;DHT22;13760;52.588;13.406;2022-08-19T07:28:14;21.60;99.90
25963;DHT22;13760;52.588;13.406;2022-08-19T07:34:44;21.60;99.90
25963;DHT22;13760;52.588;13.406;2022-08-19T07:45:58;21.70;99.90
25963;DHT22;13760;52.588;13.406;2022-08-19T07:48:54;21.70;99.90
25963;DHT22;13760;52.588;13.406;2022-08-19T07:51:36;21.70;99.90
25963;DHT22;13760;52.588;13.406;2022-08-19T07:54:43;21.70;99.90
25963;DHT22;13760;52.588;13.406;2022-08-19T07:57:52;21.80;99.90
25963;DHT22;13760;52.588;13.406;2022-08-19T08:00:27;21.80;99.90
25963;DHT22;13760;52.588;13.406;2022-08-19T08:03:02;21.90;99.90
25963;DHT22;13760;52.588;13.406;2022-08-19T08:05:34;21.90;99.90
25963;DHT22;13760;52.588;13.406;2022-08-19T08:08:40;21.90;99.90
25963;DHT22;13760;52.588;13.406;2022-08-19T08:11:24;21.90;99.90
25963;DHT22;13760;52.588;13.406;2022-08-19T08:13:52;22.00;99.90
25963;DHT22;13760;52.588;13.406;2022-08-19T08:16:17;22.00;99.90
25963;DHT22;13760;52.588;13.406;2022-08-19T08:21:47;22.10;99.90
25963;DHT22;13760;52.588;13.406;2022-08-19T08:27:50;22.20;99.90
25963;DHT22;13760;52.588;13.406;2022-08-19T08:30:24;22.30;99.90
25963;DHT22;13760;52.588;13.406;2022-08-19T08:32:53;22.30;99.90
25963;DHT22;13760;52.588;13.406;2022-08-19T08:35:35;22.30;99.90
25963;DHT22;13760;52.588;13.406;2022-08-19T08:38:29;22.30;99.90
25963;DHT22;13760;52.588;13.406;2022-08-19T08:47:39;22.30;99.90
25963;DHT22;13760;52.588;13.406;2022-08-19T08:50:29;22.30;99.90
25963;DHT22;13760;52.588;13.406;2022-08-19T08:53:03;22.40;99.90
25963;DHT22;13760;52.588;13.406;2022-08-19T08:55:35;22.40;99.90
25963;DHT22;13760;52.588;13.406;2022-08-19T08:58:06;22.50;99.90
25963;DHT22;13760;52.588;13.406;2022-08-19T09:00:37;22.50;99.90
25963;DHT22;13760;52.588;13.406;2022-08-19T09:03:09;22.50;99.90
25963;DHT22;13760;52.588;13.406;2022-08-19T09:14:27;22.60;99.90
25963;DHT22;13760;52.588;13.406;2022-08-19T09:16:54;22.70;99.90
25963;DHT22;13760;52.588;13.406;2022-08-19T09:19:22;22.70;99.90
25963;DHT22;13760;52.588;13.406;2022-08-19T09:24:26;22.80;99.90
25963;DHT22;13760;52.588;13.406;2022-08-19T09:26:52;22.90;99.90
25963;DHT22;13760;52.588;13.406;2022-08-19T09:29:19;23.10;99.90
25963;DHT22;13760;52.588;13.406;2022-08-19T09:31:46;23.30;99.90
25963;DHT22;13760;52.588;13.406;2022-08-19T09:34:15;23.50;99.90
25963;DHT22;13760;52.588;13.406;2022-08-19T09:36:42;23.60;99.90
25963;DHT22;13760;52.588;13.406;2022-08-19T09:39:08;23.80;99.90
25963;DHT22;13760;52.588;13.406;2022-08-19T09:41:35;23.80;99.90
25963;DHT22;13760;52.588;13.406;2022-08-19T09:44:01;23.80;99.90
25963;DHT22;13760;52.588;13.406;2022-08-19T09:46:35;23.80;99.90
25963;DHT22;13760;52.588;13.406;2022-08-19T09:49:09;23.80;99.90
25963;DHT22;13760;52.588;13.406;2022-08-19T09:51:40;23.80;99.90
25963;DHT22;13760;52.588;13.406;2022-08-19T09:54:22;23.80;99.90
25963;DHT22;13760;52.588;13.406;2022-08-19T09:56:55;24.00;99.90
25963;DHT22;13760;52.588;13.406;2022-08-19T09:59:35;24.20;99.90
25963;DHT22;13760;52.588;13.406;2022-08-19T10:02:04;24.30;99.90
25963;DHT22;13760;52.588;13.406;2022-08-19T10:04:50;24.30;99.90
25963;DHT22;13760;52.588;13.406;2022-08-19T10:07:58;24.40;99.90
25963;DHT22;13760;52.588;13.406;2022-08-19T10:11:04;24.30;99.90
25963;DHT22;13760;52.588;13.406;2022-08-19T10:14:10;24.30;99.90
25963;DHT22;13760;52.588;13.406;2022-08-19T10:24:09;24.30;99.90
25963;DHT22;13760;52.588;13.406;2022-08-19T10:30:05;24.00;99.90
25963;DHT22;13760;52.588;13.406;2022-08-19T10:32:41;24.00;99.90
25963;DHT22;13760;52.588;13.406;2022-08-19T10:35:15;23.90;99.90
25963;DHT22;13760;52.588;13.406;2022-08-19T10:37:45;24.10;99.90
25963;DHT22;13760;52.588;13.406;2022-08-19T10:43:59;24.10;99.90
25963;DHT22;13760;52.588;13.406;2022-08-19T10:46:50;24.10;99.90
25963;DHT22;13760;52.588;13.406;2022-08-19T10:49:29;24.10;99.90
25963;DHT22;13760;52.588;13.406;2022-08-19T10:52:27;24.10;99.90
25963;DHT22;13760;52.588;13.406;2022-08-19T10:55:48;24.10;99.90
25963;DHT22;13760;52.588;13.406;2022-08-19T11:07:21;24.10;99.90
25963;DHT22;13760;52.588;13.406;2022-08-19T11:13:29;24.10;99.90
25963;DHT22;13760;52.588;13.406;2022-08-19T11:16:30;24.10;99.90
25963;DHT22;13760;52.588;13.406;2022-08-19T11:19:33;24.10;99.90
25963;DHT22;13760;52.588;13.406;2022-08-19T11:22:21;24.10;99.90
25963;DHT22;13760;52.588;13.406;2022-08-19T11:25:04;24.00;99.90
25963;DHT22;13760;52.588;13.406;2022-08-19T11:28:01;24.00;99.90
25963;DHT22;13760;52.588;13.406;2022-08-19T11:31:29;24.00;99.90
25963;DHT22;13760;52.588;13.406;2022-08-19T11:37:31;23.90;99.90
25963;DHT22;13760;52.588;13.406;2022-08-19T11:46:59;23.90;99.90
25963;DHT22;13760;52.588;13.406;2022-08-19T11:49:28;23.90;99.90
25963;DHT22;13760;52.588;13.406;2022-08-19T11:52:12;23.90;99.90
25963;DHT22;13760;52.588;13.406;2022-08-19T11:57:36;23.80;99.90
25963;DHT22;13760;52.588;13.406;2022-08-19T12:00:07;23.80;99.90
25963;DHT22;13760;52.588;13.406;2022-08-19T12:03:31;23.80;99.90
25963;DHT22;13760;52.588;13.406;2022-08-19T12:06:10;23.70;99.90
25963;DHT22;13760;52.588;13.406;2022-08-19T12:08:54;23.70;99.90
25963;DHT22;13760;52.588;13.406;2022-08-19T12:11:20;23.80;99.90
25963;DHT22;13760;52.588;13.406;2022-08-19T12:13:49;23.90;99.90
25963;DHT22;13760;52.588;13.406;2022-08-19T12:16:19;24.10;99.90
25963;DHT22;13760;52.588;13.406;2022-08-19T12:18:46;24.10;99.90
25963;DHT22;13760;52.588;13.406;2022-08-19T12:21:26;24.20;99.90
25963;DHT22;13760;52.588;13.406;2022-08-19T12:24:02;24.30;99.90
25963;DHT22;13760;52.588;13.406;2022-08-19T12:29:34;24.30;99.90
25963;DHT22;13760;52.588;13.406;2022-08-19T12:32:34;24.40;99.90
25963;DHT22;13760;52.588;13.406;2022-08-19T12:35:08;24.70;99.90
25963;DHT22;13760;52.588;13.406;2022-08-19T12:38:09;24.80;99.90
25963;DHT22;13760;52.588;13.406;2022-08-19T12:40:38;25.10;99.90
25963;DHT22;13760;52.588;13.406;2022-08-19T12:43:20;25.20;99.90
25963;DHT22;13760;52.588;13.406;2022-08-19T12:46:12;25.40;99.90
25963;DHT22;13760;52.588;13.406;2022-08-19T12:48:51;25.40;99.90
25963;DHT22;13760;52.588;13.406;2022-08-19T12:51:50;25.60;99.90
25963;DHT22;13760;52.588;13.406;2022-08-19T12:54:28;25.60;99.90
25963;DHT22;13760;52.588;13.406;2022-08-19T12:57:08;25.50;99.90
25963;DHT22;13760;52.588;13.406;2022-08-19T12:59:35;25.50;99.90
25963;DHT22;13760;52.588;13.406;2022-08-19T13:02:03;25.50;99.90
25963;DHT22;13760;52.588;13.406;2022-08-19T13:04:33;25.60;99.90
25963;DHT22;13760;52.588;13.406;2022-08-19T13:07:01;25.50;99.90
25963;DHT22;13760;52.588;13.406;2022-08-19T13:09:28;25.50;99.90
25963;DHT22;13760;52.588;13.406;2022-08-19T13:11:56;25.50;99.90
25963;DHT22;13760;52.588;13.406;2022-08-19T13:14:28;25.60;99.90
25963;DHT22;13760;52.588;13.406;2022-08-19T13:17:04;25.60;99.90
25963;DHT22;13760;52.588;13.406;2022-08-19T13:19:52;25.60;99.90
25963;DHT22;13760;52.588;13.406;2022-08-19T13:22:30;25.50;99.90
25963;DHT22;13760;52.588;13.406;2022-08-19T13:24:57;25.50;99.90
25963;DHT22;13760;52.588;13.406;2022-08-19T13:27:40;25.60;99.90
25963;DHT22;13760;52.588;13.406;2022-08-19T13:30:27;25.50;99.90
25963;DHT22;13760;52.588;13.406;2022-08-19T13:36:53;25.50;99.90
25963;DHT22;13760;52.588;13.406;2022-08-19T13:39:22;25.50;99.90
25963;DHT22;13760;52.588;13.406;2022-08-19T13:41:49;25.50;99.90
25963;DHT22;13760;52.588;13.406;2022-08-19T13:44:23;25.40;99.90
25963;DHT22;13760;52.588;13.406;2022-08-19T13:46:53;25.30;99.90
25963;DHT22;13760;52.588;13.406;2022-08-19T13:49:21;25.40;99.90
25963;DHT22;13760;52.588;13.406;2022-08-19T13:51:48;25.40;99.90
25963;DHT22;13760;52.588;13.406;2022-08-19T13:54:16;25.30;99.90
25963;DHT22;13760;52.588;13.406;2022-08-19T13:56:51;25.30;99.90
25963;DHT22;13760;52.588;13.406;2022-08-19T13:59:24;25.20;99.90
25963;DHT22;13760;52.588;13.406;2022-08-19T14:02:14;25.10;99.90
25963;DHT22;13760;52.588;13.406;2022-08-19T14:05:09;25.10;99.90
25963;DHT22;13760;52.588;13.406;2022-08-19T14:07:45;25.00;99.90
25963;DHT22;13760;52.588;13.406;2022-08-19T14:10:17;24.90;99.90
25963;DHT22;13760;52.588;13.406;2022-08-19T14:13:07;25.00;99.90
25963;DHT22;13760;52.588;13.406;2022-08-19T14:15:34;25.00;99.90
25963;DHT22;13760;52.588;13.406;2022-08-19T14:18:01;25.00;99.90
25963;DHT22;13760;52.588;13.406;2022-08-19T14:20:30;25.10;99.90
25963;DHT22;13760;52.588;13.406;2022-08-19T14:23:00;25.10;99.90
25963;DHT22;13760;52.588;13.406;2022-08-19T14:25:29;25.20;99.90
25963;DHT22;13760;52.588;13.406;2022-08-19T14:28:03;25.20;99.90
25963;DHT22;13760;52.588;13.406;2022-08-19T14:30:38;25.20;99.90
25963;DHT22;13760;52.588;13.406;2022-08-19T14:33:06;25.10;99.90
25963;DHT22;13760;52.588;13.406;2022-08-19T14:35:40;24.90;99.90
25963;DHT22;13760;52.588;13.406;2022-08-19T14:38:16;24.80;99.90
25963;DHT22;13760;52.588;13.406;2022-08-19T14:40:44;24.70;99.90
25963;DHT22;13760;52.588;13.406;2022-08-19T14:43:11;24.70;99.90
25963;DHT22;13760;52.588;13.406;2022-08-19T14:45:38;24.70;99.90
25963;DHT22;13760;52.588;13.406;2022-08-19T14:48:08;24.70;99.90
25963;DHT22;13760;52.588;13.406;2022-08-19T14:50:34;24.70;99.90
25963;DHT22;13760;52.588;13.406;2022-08-19T14:53:07;24.60;99.90
25963;DHT22;13760;52.588;13.406;2022-08-19T14:55:33;24.50;99.90
25963;DHT22;13760;52.588;13.406;2022-08-19T14:57:59;24.40;99.90
25963;DHT22;13760;52.588;13.406;2022-08-19T15:00:26;24.40;99.90
25963;DHT22;13760;52.588;13.406;2022-08-19T15:02:52;24.40;99.90
25963;DHT22;13760;52.588;13.406;2022-08-19T15:05:21;24.30;99.90
25963;DHT22;13760;52.588;13.406;2022-08-19T15:07:47;24.30;99.90
25963;DHT22;13760;52.588;13.406;2022-08-19T15:10:14;24.30;99.90
25963;DHT22;13760;52.588;13.406;2022-08-19T15:12:41;24.40;99.90
25963;DHT22;13760;52.588;13.406;2022-08-19T15:15:12;24.40;99.90
25963;DHT22;13760;52.588;13.406;2022-08-19T15:17:39;24.40;99.90
25963;DHT22;13760;52.588;13.406;2022-08-19T15:20:12;24.30;99.90
25963;DHT22;13760;52.588;13.406;2022-08-19T15:22:41;24.40;99.90
25963;DHT22;13760;52.588;13.406;2022-08-19T15:25:09;24.40;99.90
25963;DHT22;13760;52.588;13.406;2022-08-19T15:27:35;24.40;99.90
25963;DHT22;13760;52.588;13.406;2022-08-19T15:30:01;24.40;99.90
25963;DHT22;13760;52.588;13.406;2022-08-19T15:32:27;24.40;99.90
25963;DHT22;13760;52.588;13.406;2022-08-19T15:34:53;24.40;99.90
25963;DHT22;13760;52.588;13.406;2022-08-19T15:37:19;24.30;99.90
25963;DHT22;13760;52.588;13.406;2022-08-19T15:39:49;24.30;99.90
25963;DHT22;13760;52.588;13.406;2022-08-19T15:42:14;24.20;99.90
25963;DHT22;13760;52.588;13.406;2022-08-19T15:44:40;24.10;99.90
25963;DHT22;13760;52.588;13.406;2022-08-19T15:47:06;24.10;99.90
25963;DHT22;13760;52.588;13.406;2022-08-19T15:49:34;24.00;99.90
25963;DHT22;13760;52.588;13.406;2022-08-19T15:52:05;24.00;99.90
25963;DHT22;13760;52.588;13.406;2022-08-19T15:54:32;24.00;99.90
25963;DHT22;13760;52.588;13.406;2022-08-19T15:56:58;23.90;99.90
25963;DHT22;13760;52.588;13.406;2022-08-19T15:59:59;23.90;99.90
25963;DHT22;13760;52.588;13.406;2022-08-19T16:02:43;23.90;99.90
25963;DHT22;13760;52.588;13.406;2022-08-19T16:05:27;23.90;99.90
25963;DHT22;13760;52.588;13.406;2022-08-19T16:08:33;23.90;99.90
25963;DHT22;13760;52.588;13.406;2022-08-19T16:11:04;23.80;99.90
25963;DHT22;13760;52.588;13.406;2022-08-19T16:13:31;23.80;99.90
25963;DHT22;13760;52.588;13.406;2022-08-19T16:16:00;23.80;99.90
25963;DHT22;13760;52.588;13.406;2022-08-19T16:18:30;23.80;99.90
25963;DHT22;13760;52.588;13.406;2022-08-19T16:20:56;23.70;99.90
25963;DHT22;13760;52.588;13.406;2022-08-19T16:23:22;23.60;99.90
25963;DHT22;13760;52.588;13.406;2022-08-19T16:25:48;23.50;99.90
25963;DHT22;13760;52.588;13.406;2022-08-19T16:28:13;23.50;99.90
25963;DHT22;13760;52.588;13.406;2022-08-19T16:30:41;23.50;99.90
25963;DHT22;13760;52.588;13.406;2022-08-19T16:33:08;23.50;99.90
25963;DHT22;13760;52.588;13.406;2022-08-19T16:35:34;23.50;99.90
25963;DHT22;13760;52.588;13.406;2022-08-19T16:38:00;23.50;99.90
25963;DHT22;13760;52.588;13.406;2022-08-19T16:40:26;23.50;99.90
25963;DHT22;13760;52.588;13.406;2022-08-19T16:42:52;23.50;99.90
25963;DHT22;13760;52.588;13.406;2022-08-19T16:45:18;23.50;99.90
25963;DHT22;13760;52.588;13.406;2022-08-19T16:47:45;23.50;99.90
25963;DHT22;13760;52.588;13.406;2022-08-19T16:50:10;23.40;99.90
25963;DHT22;13760;52.588;13.406;2022-08-19T16:52:39;23.50;99.90
25963;DHT22;13760;52.588;13.406;2022-08-19T16:55:05;23.40;99.90
25963;DHT22;13760;52.588;13.406;2022-08-19T16:57:32;23.40;99.90
25963;DHT22;13760;52.588;13.406;2022-08-19T16:59:59;23.50;99.90
25963;DHT22;13760;52.588;13.406;2022-08-19T17:02:26;23.40;99.90
25963;DHT22;13760;52.588;13.406;2022-08-19T17:04:52;23.40;99.90
25963;DHT22;13760;52.588;13.406;2022-08-19T17:07:18;23.40;99.90
25963;DHT22;13760;52.588;13.406;2022-08-19T17:09:44;23.40;99.90
25963;DHT22;13760;52.588;13.406;2022-08-19T17:12:09;23.30;99.90
25963;DHT22;13760;52.588;13.406;2022-08-19T17:14:36;23.30;99.90
25963;DHT22;13760;52.588;13.406;2022-08-19T17:17:09;23.20;99.90
25963;DHT22;13760;52.588;13.406;2022-08-19T17:19:37;23.20;99.90
25963;DHT22;13760;52.588;13.406;2022-08-19T17:22:06;23.20;99.90
25963;DHT22;13760;52.588;13.406;2022-08-19T17:24:31;23.10;99.90
25963;DHT22;13760;52.588;13.406;2022-08-19T17:26:57;23.10;99.90
25963;DHT22;13760;52.588;13.406;2022-08-19T17:29:23;23.10;99.90
25963;DHT22;13760;52.588;13.406;2022-08-19T17:31:48;23.00;99.90
25963;DHT22;13760;52.588;13.406;2022-08-19T17:34:14;23.00;99.90
25963;DHT22;13760;52.588;13.406;2022-08-19T17:36:41;23.00;99.90
25963;DHT22;13760;52.588;13.406;2022-08-19T17:39:07;23.00;99.90
25963;DHT22;13760;52.588;13.406;2022-08-19T17:41:33;23.00;99.90
25963;DHT22;13760;52.588;13.406;2022-08-19T17:43:59;22.90;99.90
25963;DHT22;13760;52.588;13.406;2022-08-19T17:46:25;22.80;99.90
25963;DHT22;13760;52.588;13.406;2022-08-19T17:48:51;22.80;99.90
25963;DHT22;13760;52.588;13.406;2022-08-19T17:53:59;22.70;99.90
25963;DHT22;13760;52.588;13.406;2022-08-19T17:56:25;22.70;99.90
25963;DHT22;13760;52.588;13.406;2022-08-19T18:04:30;22.60;99.90
25963;DHT22;13760;52.588;13.406;2022-08-19T18:06:56;22.50;99.90
25963;DHT22;13760;52.588;13.406;2022-08-19T18:09:30;22.50;99.90
25963;DHT22;13760;52.588;13.406;2022-08-19T18:11:57;22.40;99.90
25963;DHT22;13760;52.588;13.406;2022-08-19T18:14:27;22.40;99.90